MacKenzie, Canada
Current Conditions -  °F | °C
As of 5:00 AM on Monday 20 Oct 2014 (Local Time) from CYQT Reporting Station
Overcast Overcast  
Wind Chill: 46°   Ceiling: 1800
Heat Index: 46°   Visibility: 15mi
Dew Point: 43°   Wind: 3mph
Humidity: 87%   Direction: 290°WNW
Pressure: 29.8"   Gusts: NA
Location:  48.55°N, 88.97°W
Report Text: CYQT 200900Z 29003KT 15SM OVC018 08/06 A2980 RMK SC8 SLP096
Loading
Personal Weather Stations






























Interactive Weather Map
Tropical Storm Tracking
New forecast layout! Learn more

10-Day Weather Forecast

Advertisements
Track Severe Weather on mobile